createdAt,value
2022-09-01T00:00:02.696Z,15.78
2022-09-01T00:01:01.832Z,15.72
2022-09-01T00:02:01.984Z,15.62
2022-09-01T00:03:01.937Z,15.65
2022-09-01T00:04:01.824Z,15.62
2022-09-01T00:05:01.758Z,15.59
2022-09-01T00:06:01.741Z,15.59
2022-09-01T00:07:01.724Z,15.57
2022-09-01T00:08:01.705Z,15.60
2022-09-01T00:09:01.687Z,15.59
2022-09-01T00:10:01.670Z,15.57
2022-09-01T00:11:01.650Z,15.60
2022-09-01T00:12:01.630Z,15.52
2022-09-01T00:13:01.610Z,15.57
2022-09-01T00:14:01.598Z,15.51
2022-09-01T00:15:01.577Z,15.45
2022-09-01T00:16:01.635Z,15.55
2022-09-01T00:17:01.538Z,15.47
2022-09-01T00:18:01.522Z,15.47
2022-09-01T00:19:01.504Z,15.39
2022-09-01T00:20:01.487Z,15.43
2022-09-01T00:21:01.465Z,15.33
2022-09-01T00:22:01.450Z,15.26
2022-09-01T00:23:01.433Z,15.32
2022-09-01T00:24:01.413Z,15.25
2022-09-01T00:25:01.390Z,15.26
2022-09-01T00:26:01.375Z,15.27
2022-09-01T00:27:01.360Z,15.27
2022-09-01T00:28:01.337Z,15.29
2022-09-01T00:29:01.319Z,15.27
2022-09-01T00:30:01.300Z,15.36
2022-09-01T00:31:01.306Z,15.23
2022-09-01T00:32:01.268Z,15.29
2022-09-01T00:33:01.244Z,15.32
2022-09-01T00:34:01.233Z,15.23
2022-09-01T00:35:01.210Z,15.22
2022-09-01T00:36:01.190Z,15.29
2022-09-01T00:37:01.171Z,15.29
2022-09-01T00:38:01.196Z,15.22
2022-09-01T00:39:01.140Z,15.22
2022-09-01T00:40:01.118Z,15.26
2022-09-01T00:41:01.098Z,15.18
2022-09-01T00:42:01.080Z,15.17
2022-09-01T00:43:01.064Z,15.17
2022-09-01T00:44:01.045Z,15.19
2022-09-01T00:45:01.024Z,15.18
2022-09-01T00:46:01.047Z,15.17
2022-09-01T00:47:00.987Z,15.15
2022-09-01T00:48:00.972Z,15.08
2022-09-01T00:49:00.949Z,15.18
2022-09-01T00:50:00.933Z,15.12
2022-09-01T00:51:00.917Z,15.08
2022-09-01T00:52:00.899Z,15.07
2022-09-01T00:53:00.881Z,15.07
2022-09-01T00:54:00.859Z,15.18
2022-09-01T00:55:00.840Z,15.11
2022-09-01T00:56:00.823Z,15.18
2022-09-01T00:57:00.805Z,15.14
2022-09-01T00:58:00.785Z,15.22
2022-09-01T00:59:00.766Z,15.19
2022-09-01T01:00:00.751Z,15.14
2022-09-01T01:01:00.788Z,15.14
2022-09-01T01:02:00.712Z,15.10
2022-09-01T01:03:00.796Z,15.12
2022-09-01T01:04:00.676Z,15.00
2022-09-01T01:05:00.748Z,15.12
2022-09-01T01:06:00.638Z,15.05
2022-09-01T01:07:00.623Z,15.00
2022-09-01T01:08:00.603Z,15.05
2022-09-01T01:09:00.583Z,14.92
2022-09-01T01:10:00.564Z,14.93
2022-09-01T01:11:00.542Z,14.86
2022-09-01T01:12:00.526Z,15.02
2022-09-01T01:13:00.509Z,14.97
2022-09-01T01:14:00.493Z,14.92
2022-09-01T01:15:00.471Z,15.02
2022-09-01T01:16:00.453Z,15.04
2022-09-01T01:17:00.587Z,14.97
2022-09-01T01:18:00.416Z,14.93
2022-09-01T01:19:00.398Z,14.94
2022-09-01T01:20:00.378Z,14.90
2022-09-01T01:21:00.359Z,14.93
2022-09-01T01:22:00.343Z,14.94
2022-09-01T01:23:00.325Z,14.93
2022-09-01T01:24:00.309Z,14.89
2022-09-01T01:25:00.290Z,14.87
2022-09-01T01:26:00.266Z,14.86
2022-09-01T01:27:00.245Z,14.96
2022-09-01T01:28:00.231Z,14.92
2022-09-01T01:29:00.209Z,14.93
2022-09-01T01:30:00.191Z,14.93
2022-09-01T01:31:00.207Z,14.97
2022-09-01T01:32:00.160Z,14.93
2022-09-01T01:33:00.135Z,14.90
2022-09-01T01:34:00.119Z,14.93
2022-09-01T01:35:00.110Z,14.92
2022-09-01T01:36:00.095Z,14.92
2022-09-01T01:37:00.065Z,14.82
2022-09-01T01:38:00.043Z,14.86
2022-09-01T01:39:00.028Z,14.85
2022-09-01T01:40:00.005Z,14.78
2022-09-01T01:40:59.988Z,14.71
2022-09-01T01:41:59.968Z,14.77
2022-09-01T01:42:59.952Z,14.71
2022-09-01T01:43:59.931Z,14.70
2022-09-01T01:44:59.913Z,14.73
2022-09-01T01:45:59.929Z,14.71
2022-09-01T01:46:59.876Z,14.61
2022-09-01T01:47:59.856Z,14.61
2022-09-01T01:48:59.845Z,14.62
2022-09-01T01:49:59.820Z,14.58
2022-09-01T01:50:59.800Z,14.61
2022-09-01T01:51:59.783Z,14.58
2022-09-01T01:52:59.764Z,14.55
2022-09-01T01:53:59.741Z,14.52
2022-09-01T01:55:04.541Z,14.55
2022-09-01T01:55:59.708Z,14.51
2022-09-01T01:56:59.689Z,14.45
2022-09-01T01:57:59.668Z,14.59
2022-09-01T01:58:59.650Z,14.53
2022-09-01T01:59:59.631Z,14.52
2022-09-01T02:00:59.703Z,14.48
2022-09-01T02:01:59.632Z,14.59
2022-09-01T02:02:59.671Z,14.49
2022-09-01T02:04:00.203Z,14.48
2022-09-01T02:04:59.540Z,14.45
2022-09-01T02:05:59.520Z,14.45
2022-09-01T02:06:59.500Z,14.45
2022-09-01T02:07:59.482Z,14.43
2022-09-01T02:08:59.464Z,14.37
2022-09-01T02:09:59.445Z,14.38
2022-09-01T02:10:59.428Z,14.40
2022-09-01T02:11:59.405Z,14.40
2022-09-01T02:12:59.391Z,14.34
2022-09-01T02:13:59.368Z,14.36
2022-09-01T02:14:59.352Z,14.34
2022-09-01T02:15:59.330Z,14.31
2022-09-01T02:16:59.341Z,14.30
2022-09-01T02:17:59.291Z,14.31
2022-09-01T02:18:59.278Z,14.26
2022-09-01T02:19:59.257Z,14.30
2022-09-01T02:20:59.239Z,14.28
2022-09-01T02:21:59.218Z,14.37
2022-09-01T02:22:59.199Z,14.30
2022-09-01T02:23:59.182Z,14.25
2022-09-01T02:24:59.162Z,14.40
2022-09-01T02:26:15.693Z,14.30
2022-09-01T02:26:59.125Z,14.36
2022-09-01T02:27:59.105Z,14.36
2022-09-01T02:28:59.089Z,14.28
2022-09-01T02:29:59.069Z,14.20
2022-09-01T02:30:59.074Z,14.22
2022-09-01T02:31:59.030Z,14.25
2022-09-01T02:32:59.010Z,14.22
2022-09-01T02:33:58.993Z,14.15
2022-09-01T02:34:58.974Z,14.12
2022-09-01T02:35:58.954Z,14.07
2022-09-01T02:36:58.936Z,14.12
2022-09-01T02:37:58.914Z,14.08
2022-09-01T02:38:58.901Z,14.07
2022-09-01T02:39:58.880Z,14.07
2022-09-01T02:40:58.860Z,14.08
2022-09-01T02:41:58.838Z,14.12
2022-09-01T02:42:58.822Z,14.12
2022-09-01T02:43:58.803Z,14.07
2022-09-01T02:44:58.797Z,14.04
2022-09-01T02:45:58.816Z,14.08
2022-09-01T02:46:58.750Z,14.07
2022-09-01T02:47:58.725Z,14.12
2022-09-01T02:48:58.707Z,14.07
2022-09-01T02:49:58.684Z,14.07
2022-09-01T02:50:58.670Z,14.03
2022-09-01T02:51:58.650Z,14.12
2022-09-01T02:53:03.246Z,14.05
2022-09-01T02:53:58.621Z,14.00
2022-09-01T02:54:58.597Z,14.00
2022-09-01T02:55:58.575Z,13.98
2022-09-01T02:56:58.554Z,14.00
2022-09-01T02:57:58.538Z,13.91
2022-09-01T02:58:58.518Z,13.89
2022-09-01T02:59:58.498Z,13.83
2022-09-01T03:00:58.525Z,13.91
2022-09-01T03:01:58.457Z,13.89
2022-09-01T03:02:58.442Z,13.87
2022-09-01T03:03:58.421Z,13.85
2022-09-01T03:04:58.448Z,13.89
2022-09-01T03:05:58.384Z,13.94
2022-09-01T03:06:58.365Z,13.85
2022-09-01T03:07:58.345Z,13.89
2022-09-01T03:08:58.328Z,13.94
2022-09-01T03:09:58.307Z,13.89
2022-09-01T03:10:58.289Z,13.89
2022-09-01T03:11:58.269Z,13.83
2022-09-01T03:12:58.251Z,13.85
2022-09-01T03:13:58.234Z,13.91
2022-09-01T03:14:58.212Z,13.87
2022-09-01T03:15:58.192Z,13.78
2022-09-01T03:16:58.212Z,13.78
2022-09-01T03:17:58.153Z,13.86
2022-09-01T03:18:58.136Z,13.79
2022-09-01T03:19:58.116Z,13.78
2022-09-01T03:20:58.104Z,13.85
2022-09-01T03:21:58.077Z,13.83
2022-09-01T03:22:58.061Z,13.78
2022-09-01T03:23:58.042Z,13.76
2022-09-01T03:24:58.022Z,13.71
2022-09-01T03:25:57.999Z,13.65
2022-09-01T03:26:57.981Z,13.68
2022-09-01T03:27:57.965Z,13.68
2022-09-01T03:28:57.945Z,13.76
2022-09-01T03:29:57.922Z,13.73
2022-09-01T03:30:57.906Z,13.73
2022-09-01T03:31:57.939Z,13.71
2022-09-01T03:32:57.866Z,13.68
2022-09-01T03:33:57.845Z,13.65
2022-09-01T03:34:57.828Z,13.60
2022-09-01T03:35:57.809Z,13.60
2022-09-01T03:36:57.788Z,13.61
2022-09-01T03:37:57.767Z,13.75
2022-09-01T03:38:57.748Z,13.78
2022-09-01T03:39:58.128Z,13.71
2022-09-01T03:40:57.712Z,13.73
2022-09-01T03:41:57.692Z,13.73
2022-09-01T03:42:57.677Z,13.75
2022-09-01T03:43:57.655Z,13.70
2022-09-01T03:44:57.634Z,13.76
2022-09-01T03:45:57.653Z,13.83
2022-09-01T03:46:57.598Z,13.70
2022-09-01T03:47:57.578Z,13.70
2022-09-01T03:48:57.557Z,13.70
2022-09-01T03:49:57.539Z,13.68
2022-09-01T03:50:57.520Z,13.71
2022-09-01T03:51:57.533Z,13.64
2022-09-01T03:52:57.482Z,13.57
2022-09-01T03:53:57.548Z,13.57
2022-09-01T03:54:57.444Z,13.58
2022-09-01T03:55:57.422Z,13.64
2022-09-01T03:56:57.404Z,13.65
2022-09-01T03:57:57.386Z,13.60
2022-09-01T03:58:57.372Z,13.68
2022-09-01T03:59:57.348Z,13.60
2022-09-01T04:00:57.424Z,13.60
2022-09-01T04:01:57.342Z,13.64
2022-09-01T04:02:57.289Z,13.62
2022-09-01T04:03:57.269Z,13.64
2022-09-01T04:04:57.249Z,13.64
2022-09-01T04:05:57.229Z,13.62
2022-09-01T04:06:57.210Z,13.67
2022-09-01T04:07:57.191Z,13.65
2022-09-01T04:08:57.171Z,13.61
2022-09-01T04:09:57.150Z,13.62
2022-09-01T04:10:57.133Z,13.58
2022-09-01T04:11:57.114Z,13.58
2022-09-01T04:12:57.091Z,13.57
2022-09-01T04:13:57.072Z,13.62
2022-09-01T04:14:57.058Z,13.58
2022-09-01T04:15:57.241Z,13.52
2022-09-01T04:16:57.093Z,13.54
2022-09-01T04:17:56.994Z,13.55
2022-09-01T04:18:56.977Z,13.54
2022-09-01T04:19:56.958Z,13.47
2022-09-01T04:20:56.938Z,13.40
2022-09-01T04:21:56.917Z,13.43
2022-09-01T04:22:56.901Z,13.39
2022-09-01T04:23:56.880Z,13.37
2022-09-01T04:24:56.861Z,13.31
2022-09-01T04:25:56.848Z,13.42
2022-09-01T04:26:56.824Z,13.40
2022-09-01T04:27:56.803Z,13.42
2022-09-01T04:28:56.786Z,13.37
2022-09-01T04:29:57.804Z,13.42
2022-09-01T04:30:56.745Z,13.43
2022-09-01T04:31:56.744Z,13.30
2022-09-01T04:32:56.707Z,13.36
2022-09-01T04:33:56.686Z,13.33
2022-09-01T04:34:56.668Z,13.36
2022-09-01T04:35:56.656Z,13.31
2022-09-01T04:36:56.627Z,13.33
2022-09-01T04:37:56.606Z,13.37
2022-09-01T04:38:56.590Z,13.40
2022-09-01T04:39:57.420Z,13.28
2022-09-01T04:40:56.551Z,13.36
2022-09-01T04:41:56.529Z,13.37
2022-09-01T04:42:56.512Z,13.30
2022-09-01T04:43:56.494Z,13.27
2022-09-01T04:44:56.471Z,13.28
2022-09-01T04:45:56.509Z,13.24
2022-09-01T04:46:56.434Z,13.26
2022-09-01T04:47:56.414Z,13.16
2022-09-01T04:48:56.392Z,13.09
2022-09-01T04:49:56.373Z,13.23
2022-09-01T04:50:56.370Z,13.24
2022-09-01T04:51:56.338Z,13.21
2022-09-01T04:52:56.318Z,13.21
2022-09-01T04:53:56.293Z,13.27
2022-09-01T04:54:56.278Z,13.24
2022-09-01T04:55:56.254Z,13.20
2022-09-01T04:56:56.238Z,13.20
2022-09-01T04:57:56.218Z,13.19
2022-09-01T04:58:56.201Z,13.21
2022-09-01T04:59:56.177Z,13.21
2022-09-01T05:00:56.287Z,13.23
2022-09-01T05:01:56.179Z,13.27
2022-09-01T05:02:56.121Z,13.28
2022-09-01T05:03:56.103Z,13.27
2022-09-01T05:04:56.082Z,13.20
2022-09-01T05:05:56.059Z,13.20
2022-09-01T05:06:56.065Z,13.31
2022-09-01T05:07:56.022Z,13.20
2022-09-01T05:08:56.003Z,13.24
2022-09-01T05:10:00.566Z,13.21
2022-09-01T05:10:56.060Z,13.19
2022-09-01T05:11:55.945Z,13.16
2022-09-01T05:12:55.926Z,13.19
2022-09-01T05:13:55.905Z,13.19
2022-09-01T05:14:55.884Z,13.17
2022-09-01T05:15:55.938Z,13.11
2022-09-01T05:16:55.848Z,13.20
2022-09-01T05:17:55.825Z,13.20
2022-09-01T05:18:55.849Z,13.28
2022-09-01T05:19:55.786Z,13.24
2022-09-01T05:20:55.768Z,13.28
2022-09-01T05:21:55.746Z,13.28
2022-09-01T05:22:55.728Z,13.28
2022-09-01T05:23:55.710Z,13.28
2022-09-01T05:24:55.688Z,13.26
2022-09-01T05:25:55.666Z,13.23
2022-09-01T05:26:55.650Z,13.26
2022-09-01T05:27:55.631Z,13.23
2022-09-01T05:28:55.613Z,13.23
2022-09-01T05:29:55.589Z,13.23
2022-09-01T05:30:55.573Z,13.36
2022-09-01T05:31:55.638Z,13.20
2022-09-01T05:32:55.566Z,13.36
2022-09-01T05:33:55.511Z,13.39
2022-09-01T05:34:55.607Z,13.37
2022-09-01T05:35:55.572Z,13.30
2022-09-01T05:36:55.549Z,13.40
2022-09-01T05:37:55.533Z,13.49
2022-09-01T05:38:55.415Z,13.42
2022-09-01T05:39:55.394Z,13.40
2022-09-01T05:40:55.372Z,13.46
2022-09-01T05:41:55.354Z,13.57
2022-09-01T05:42:55.338Z,13.52
2022-09-01T05:43:59.966Z,13.50
2022-09-01T05:44:55.294Z,13.47
2022-09-01T05:46:06.199Z,13.61
2022-09-01T05:46:55.343Z,13.55
2022-09-01T05:47:55.236Z,13.61
2022-09-01T05:48:55.218Z,13.61
2022-09-01T05:49:55.196Z,13.65
2022-09-01T05:50:55.180Z,13.60
2022-09-01T05:51:55.156Z,13.64
2022-09-01T05:52:55.137Z,13.61
2022-09-01T05:53:55.118Z,13.76
2022-09-01T05:54:55.098Z,13.73
2022-09-01T05:55:55.081Z,13.86
2022-09-01T05:56:55.066Z,13.80
2022-09-01T05:57:55.042Z,13.82
2022-09-01T05:59:55.002Z,13.95
2022-09-01T06:00:54.980Z,13.91
2022-09-01T06:01:55.231Z,13.89
2022-09-01T06:02:55.073Z,13.94
2022-09-01T06:03:54.924Z,13.86
2022-09-01T06:04:54.900Z,13.98
2022-09-01T06:05:54.885Z,14.03
2022-09-01T06:07:06.368Z,14.12
2022-09-01T06:07:54.844Z,14.04
2022-09-01T06:08:54.823Z,14.07
2022-09-01T06:09:54.808Z,14.16
2022-09-01T06:10:54.786Z,14.25
2022-09-01T06:11:54.768Z,14.28
2022-09-01T06:12:54.745Z,14.31
2022-09-01T06:13:55.447Z,14.34
2022-09-01T06:14:54.717Z,14.34
2022-09-01T06:15:54.762Z,14.41
2022-09-01T06:16:54.666Z,14.45
2022-09-01T06:17:54.651Z,14.56
2022-09-01T06:18:54.630Z,14.55
2022-09-01T06:19:54.612Z,14.63
2022-09-01T06:20:54.589Z,14.73
2022-09-01T06:21:54.570Z,14.71
2022-09-01T06:22:54.551Z,14.74
2022-09-01T06:23:54.532Z,14.86
2022-09-01T06:24:58.097Z,14.82
2022-09-01T06:25:54.493Z,14.93
2022-09-01T06:26:54.473Z,14.92
2022-09-01T06:27:54.456Z,14.89
2022-09-01T06:28:54.434Z,14.99
2022-09-01T06:29:54.418Z,15.04
2022-09-01T06:30:54.397Z,15.05
2022-09-01T06:31:54.379Z,15.02
2022-09-01T06:32:54.356Z,15.10
2022-09-01T06:33:54.338Z,15.11
2022-09-01T06:34:54.323Z,15.15
2022-09-01T06:35:54.299Z,15.18
2022-09-01T06:36:54.279Z,15.30
2022-09-01T06:37:54.260Z,15.27
2022-09-01T06:38:54.244Z,15.37
2022-09-01T06:39:54.223Z,15.39
2022-09-01T06:40:54.785Z,15.45
2022-09-01T06:41:54.184Z,15.45
2022-09-01T06:42:54.166Z,15.59
2022-09-01T06:43:54.148Z,15.57
2022-09-01T06:44:54.121Z,15.59
2022-09-01T06:45:54.109Z,15.60
2022-09-01T06:46:54.149Z,15.67
2022-09-01T06:47:57.591Z,15.75
2022-09-01T06:48:54.046Z,15.73
2022-09-01T06:49:57.825Z,15.83
2022-09-01T06:51:53.992Z,15.85
2022-09-01T06:53:53.952Z,15.90
2022-09-01T06:54:53.933Z,15.91
2022-09-01T06:55:53.916Z,15.98
2022-09-01T06:56:53.896Z,16.00
2022-09-01T06:58:09.237Z,15.98
2022-09-01T06:58:53.853Z,16.05
2022-09-01T06:59:53.843Z,16.17
2022-09-01T07:00:53.820Z,16.10
2022-09-01T07:02:01.214Z,16.24
2022-09-01T07:02:53.840Z,16.21
2022-09-01T07:03:53.764Z,16.28
2022-09-01T07:04:53.753Z,16.28
2022-09-01T07:07:53.262Z,16.31
2022-09-01T07:08:04.742Z,16.34
2022-09-01T07:10:06.357Z,16.43
2022-09-01T07:12:25.081Z,16.47
2022-09-01T07:16:51.887Z,16.64
2022-09-01T07:17:45.969Z,16.68
2022-09-01T07:18:58.279Z,16.69
2022-09-01T07:19:49.114Z,16.80
2022-09-01T07:22:06.728Z,16.87
2022-09-01T07:24:07.948Z,17.04
2022-09-01T07:24:45.840Z,17.12
2022-09-01T07:26:01.599Z,17.19
2022-09-01T07:26:47.198Z,17.20
2022-09-01T07:27:45.779Z,17.31
2022-09-01T07:28:47.823Z,17.31
2022-09-01T07:29:45.741Z,17.35
2022-09-01T07:30:48.558Z,17.39
2022-09-01T07:31:49.387Z,17.42
2022-09-01T07:33:48.032Z,17.50
2022-09-01T07:34:46.429Z,17.50
2022-09-01T07:39:48.842Z,17.82
2022-09-01T07:39:49.876Z,17.76
2022-09-01T07:42:31.699Z,17.47
2022-09-01T07:43:45.480Z,17.93
2022-09-01T07:44:45.462Z,17.91
2022-09-01T07:45:58.033Z,17.94
2022-09-01T07:46:45.450Z,17.98
2022-09-01T07:47:53.225Z,18.02
2022-09-01T07:50:12.531Z,18.03
2022-09-01T07:51:45.359Z,18.18
2022-09-01T07:52:45.313Z,18.16
2022-09-01T07:53:45.297Z,18.21
2022-09-01T07:54:45.276Z,18.23
2022-09-01T07:55:45.256Z,18.33
2022-09-01T07:56:45.237Z,18.37
2022-09-01T07:57:45.218Z,18.42
2022-09-01T07:58:45.205Z,18.45
2022-09-01T07:59:45.184Z,18.51
2022-09-01T08:00:45.162Z,18.51
2022-09-01T08:01:45.234Z,18.55
2022-09-01T08:02:45.216Z,18.57
2022-09-01T08:03:45.112Z,18.60
2022-09-01T08:04:45.091Z,18.61
2022-09-01T08:05:45.072Z,18.66
2022-09-01T08:06:45.054Z,18.58
2022-09-01T08:07:52.459Z,18.68
2022-09-01T08:08:45.018Z,18.68
2022-09-01T08:09:44.997Z,18.78
2022-09-01T08:10:44.980Z,18.82
2022-09-01T08:12:01.814Z,18.81
2022-09-01T08:12:44.944Z,18.88
2022-09-01T08:13:44.923Z,18.88
2022-09-01T08:14:44.907Z,19.00
2022-09-01T08:16:52.408Z,18.96
2022-09-01T08:17:52.284Z,19.07
2022-09-01T08:18:48.500Z,19.00
2022-09-01T08:19:44.816Z,19.05
2022-09-01T08:20:44.931Z,19.09
2022-09-01T08:21:44.805Z,19.09
2022-09-01T08:22:44.761Z,19.09
2022-09-01T08:23:44.816Z,19.05
2022-09-01T08:24:44.750Z,19.23
2022-09-01T08:25:44.706Z,19.16
2022-09-01T08:26:44.689Z,19.22
2022-09-01T08:27:44.670Z,19.30
2022-09-01T08:28:46.199Z,19.32
2022-09-01T08:29:44.632Z,19.41
2022-09-01T08:30:49.183Z,19.52
2022-09-01T08:31:44.630Z,19.49
2022-09-01T08:32:44.580Z,19.48
2022-09-01T08:33:44.561Z,19.47
2022-09-01T08:34:44.543Z,19.52
2022-09-01T08:35:44.529Z,19.71
2022-09-01T08:36:44.509Z,19.67
2022-09-01T08:37:44.490Z,19.63
2022-09-01T08:38:44.473Z,19.79
2022-09-01T08:39:44.451Z,19.81
2022-09-01T08:40:44.516Z,19.74
2022-09-01T08:41:47.181Z,19.75
2022-09-01T08:42:44.399Z,19.85
2022-09-01T08:43:44.380Z,19.79
2022-09-01T08:44:44.367Z,19.99
2022-09-01T08:45:44.350Z,20.04
2022-09-01T08:46:44.415Z,20.02
2022-09-01T08:48:15.247Z,20.04
2022-09-01T08:49:44.647Z,20.19
2022-09-01T08:50:44.255Z,20.14
2022-09-01T08:51:44.236Z,20.24
2022-09-01T08:52:44.229Z,20.22
2022-09-01T08:53:44.201Z,20.22
2022-09-01T08:54:44.381Z,20.32
2022-09-01T08:55:44.166Z,20.32
2022-09-01T08:56:44.150Z,20.21
2022-09-01T08:57:44.137Z,20.29
2022-09-01T08:58:44.202Z,20.27
2022-09-01T08:59:44.096Z,20.32
2022-09-01T09:00:44.090Z,20.39
2022-09-01T09:01:44.073Z,20.36
2022-09-01T09:02:44.082Z,20.33
2022-09-01T09:03:44.044Z,20.37
2022-09-01T09:04:44.008Z,20.34
2022-09-01T09:05:43.989Z,20.27
2022-09-01T09:06:44.018Z,20.27
2022-09-01T09:07:43.959Z,20.30
2022-09-01T09:08:43.934Z,20.34
2022-09-01T09:09:49.356Z,20.55
2022-09-01T09:10:43.912Z,20.53
2022-09-01T09:11:43.885Z,20.49
2022-09-01T09:12:49.911Z,20.46
2022-09-01T09:13:43.855Z,20.58
2022-09-01T09:14:43.836Z,20.58
2022-09-01T09:15:43.897Z,20.68
2022-09-01T09:16:43.803Z,20.70
2022-09-01T09:17:43.776Z,20.77
2022-09-01T09:18:54.598Z,20.85
2022-09-01T09:19:43.753Z,20.83
2022-09-01T09:20:43.727Z,20.80
2022-09-01T09:21:43.716Z,20.92
2022-09-01T09:22:43.692Z,20.92
2022-09-01T09:23:44.555Z,20.96
2022-09-01T09:24:43.663Z,21.00
2022-09-01T09:25:43.641Z,21.03
2022-09-01T09:26:44.674Z,20.95
2022-09-01T09:27:43.607Z,20.98
2022-09-01T09:28:43.589Z,21.14
2022-09-01T09:29:45.485Z,21.10
2022-09-01T09:30:43.585Z,21.22
2022-09-01T09:31:43.544Z,21.40
2022-09-01T09:33:11.716Z,21.40
2022-09-01T09:33:51.689Z,21.38
2022-09-01T09:34:43.482Z,21.51
2022-09-01T09:35:43.464Z,21.54
2022-09-01T09:36:43.446Z,21.53
2022-09-01T09:37:43.437Z,21.54
2022-09-01T09:38:44.099Z,21.53
2022-09-01T09:39:43.406Z,21.59
2022-09-01T09:41:09.503Z,21.53
2022-09-01T09:41:43.417Z,21.63
2022-09-01T09:42:43.359Z,21.60
2022-09-01T09:43:43.780Z,21.56
2022-09-01T09:44:43.311Z,21.69
2022-09-01T09:45:43.410Z,21.69
2022-09-01T09:46:43.649Z,21.74
2022-09-01T09:47:44.699Z,21.91
2022-09-01T09:48:43.242Z,22.00
2022-09-01T09:49:48.202Z,22.23
2022-09-01T09:50:43.206Z,22.34
2022-09-01T09:51:43.189Z,22.43
2022-09-01T09:52:43.173Z,22.55
2022-09-01T09:53:43.160Z,22.67
2022-09-01T09:54:43.148Z,22.84
2022-09-01T09:55:43.122Z,23.14
2022-09-01T09:56:43.165Z,23.37
2022-09-01T09:57:43.085Z,23.36
2022-09-01T09:58:43.074Z,23.58
2022-09-01T10:00:01.128Z,23.84
2022-09-01T10:00:43.045Z,23.95
2022-09-01T10:01:43.131Z,24.26
2022-09-01T10:02:43.012Z,24.40
2022-09-01T10:03:43.040Z,24.63
2022-09-01T10:04:42.972Z,24.59
2022-09-01T10:05:43.416Z,24.58
2022-09-01T10:06:42.941Z,24.53
2022-09-01T10:07:42.936Z,24.53
2022-09-01T10:08:42.919Z,24.48
2022-09-01T10:09:42.905Z,24.51
2022-09-01T10:10:42.892Z,24.48
2022-09-01T10:11:42.861Z,24.29
2022-09-01T10:12:42.856Z,24.31
2022-09-01T10:13:42.828Z,24.31
2022-09-01T10:14:51.624Z,24.32
2022-09-01T10:15:42.797Z,24.28
2022-09-01T10:16:42.821Z,24.24
2022-09-01T10:17:43.612Z,24.28
2022-09-01T10:18:42.766Z,24.40
2022-09-01T10:19:42.771Z,24.47
2022-09-01T10:20:42.744Z,24.44
2022-09-01T10:21:42.773Z,24.47
2022-09-01T10:22:42.688Z,24.46
2022-09-01T10:23:42.677Z,24.66
2022-09-01T10:24:45.865Z,24.78
2022-09-01T10:25:42.640Z,24.86
2022-09-01T10:26:42.631Z,24.85
2022-09-01T10:27:42.610Z,24.79
2022-09-01T10:28:49.611Z,24.75
2022-09-01T10:29:48.967Z,24.63
2022-09-01T10:30:42.624Z,24.75
2022-09-01T10:31:42.551Z,24.75
2022-09-01T10:32:50.806Z,24.88
2022-09-01T10:33:42.518Z,24.84
2022-09-01T10:34:42.504Z,24.88
2022-09-01T10:35:42.486Z,25.09
2022-09-01T10:36:42.701Z,24.84
2022-09-01T10:37:42.455Z,24.63
2022-09-01T10:38:46.321Z,24.59
2022-09-01T10:39:43.300Z,24.61
2022-09-01T10:40:43.954Z,24.85
2022-09-01T10:41:42.395Z,25.00
2022-09-01T10:42:45.372Z,25.14
2022-09-01T10:43:42.364Z,25.25
2022-09-01T10:44:42.349Z,25.18
2022-09-01T10:45:42.385Z,25.06
2022-09-01T10:46:44.326Z,25.29
2022-09-01T10:47:42.361Z,25.11
2022-09-01T10:48:55.358Z,25.01
2022-09-01T10:49:46.393Z,25.22
2022-09-01T10:50:42.265Z,25.39
2022-09-01T10:51:50.510Z,25.43
2022-09-01T10:52:43.347Z,25.39
2022-09-01T10:53:42.216Z,25.46
2022-09-01T10:54:55.504Z,25.62
2022-09-01T10:55:42.187Z,25.86
2022-09-01T10:56:44.239Z,25.93
2022-09-01T10:57:42.752Z,25.93
2022-09-01T10:59:50.236Z,25.77
2022-09-01T11:01:10.283Z,25.93
2022-09-01T11:01:48.848Z,25.98
2022-09-01T11:02:46.615Z,25.92
2022-09-01T11:03:49.091Z,26.07
2022-09-01T11:04:42.163Z,26.23
2022-09-01T11:05:42.043Z,26.31
2022-09-01T11:06:42.340Z,26.51
2022-09-01T11:08:42.010Z,26.73
2022-09-01T11:09:41.988Z,26.71
2022-09-01T11:10:41.960Z,26.79
2022-09-01T11:11:41.947Z,26.76
2022-09-01T11:12:42.196Z,26.73
2022-09-01T11:13:45.185Z,26.73
2022-09-01T11:14:41.909Z,26.71
2022-09-01T11:15:41.892Z,26.37
2022-09-01T11:16:49.443Z,26.10
2022-09-01T11:17:41.956Z,26.08
2022-09-01T11:18:41.846Z,25.93
2022-09-01T11:19:41.832Z,25.92
2022-09-01T11:20:41.816Z,25.89
2022-09-01T11:21:41.802Z,25.91
2022-09-01T11:22:41.787Z,25.95
2022-09-01T11:23:41.771Z,25.93
2022-09-01T11:24:42.383Z,25.77
2022-09-01T11:25:41.741Z,25.83
2022-09-01T11:26:41.733Z,25.73
2022-09-01T11:27:41.794Z,25.67
2022-09-01T11:28:41.911Z,25.62
2022-09-01T11:29:41.685Z,25.59
2022-09-01T11:30:41.670Z,25.56
2022-09-01T11:31:41.728Z,25.54
2022-09-01T11:32:46.278Z,25.51
2022-09-01T11:33:41.621Z,25.46
2022-09-01T11:34:41.625Z,25.29
2022-09-01T11:35:41.595Z,25.29
2022-09-01T11:36:41.576Z,25.01
2022-09-01T11:37:41.613Z,25.16
2022-09-01T11:38:41.548Z,24.96
2022-09-01T11:39:41.537Z,25.07
2022-09-01T11:40:41.592Z,24.85
2022-09-01T11:41:43.052Z,24.71
2022-09-01T11:42:41.486Z,24.68
2022-09-01T11:43:41.472Z,24.53
2022-09-01T11:44:42.523Z,24.62
2022-09-01T11:45:41.522Z,24.66
2022-09-01T11:46:41.426Z,24.65
2022-09-01T11:47:41.412Z,24.66
2022-09-01T11:48:41.395Z,24.81
2022-09-01T11:49:41.383Z,24.74
2022-09-01T11:50:41.369Z,24.82
2022-09-01T11:51:41.422Z,24.85
2022-09-01T11:52:41.336Z,24.86
2022-09-01T11:53:41.332Z,24.58
2022-09-01T11:54:41.305Z,24.63
2022-09-01T11:55:41.293Z,24.53
2022-09-01T11:56:41.273Z,24.69
2022-09-01T11:57:41.258Z,24.62
2022-09-01T11:58:41.244Z,24.71
2022-09-01T11:59:41.229Z,24.81
2022-09-01T12:00:41.217Z,24.88
2022-09-01T12:01:41.271Z,24.84
2022-09-01T12:02:41.259Z,24.86
2022-09-01T12:03:41.358Z,24.78
2022-09-01T12:04:41.186Z,24.68
2022-09-01T12:05:41.185Z,24.75
2022-09-01T12:06:41.179Z,24.77
2022-09-01T12:07:41.108Z,24.65
2022-09-01T12:08:41.096Z,24.74
2022-09-01T12:09:41.097Z,24.85
2022-09-01T12:10:41.066Z,24.86
2022-09-01T12:11:41.088Z,25.01
2022-09-01T12:12:41.109Z,24.89
2022-09-01T12:13:41.090Z,24.92
2022-09-01T12:15:02.358Z,25.00
2022-09-01T12:15:54.925Z,25.01
2022-09-01T12:16:41.007Z,25.01
2022-09-01T12:17:41.011Z,24.88
2022-09-01T12:18:40.997Z,25.00
2022-09-01T12:19:40.998Z,25.09
2022-09-01T12:20:41.047Z,25.01
2022-09-01T12:21:40.897Z,25.03
2022-09-01T12:22:40.944Z,25.03
2022-09-01T12:23:40.925Z,24.89
2022-09-01T12:24:40.848Z,24.89
2022-09-01T12:25:40.868Z,25.00
2022-09-01T12:26:40.869Z,24.97
2022-09-01T12:27:40.820Z,24.84
2022-09-01T12:28:40.872Z,24.88
2022-09-01T12:29:40.817Z,24.82
2022-09-01T12:30:40.833Z,24.78
2022-09-01T12:31:40.904Z,24.75
2022-09-01T12:32:40.728Z,24.75
2022-09-01T12:33:41.030Z,24.79
2022-09-01T12:34:40.726Z,24.68
2022-09-01T12:35:40.743Z,24.68
2022-09-01T12:36:40.706Z,24.63
2022-09-01T12:37:40.717Z,24.55
2022-09-01T12:38:40.656Z,24.61
2022-09-01T12:39:40.661Z,24.58
2022-09-01T12:40:40.699Z,24.56
2022-09-01T12:41:40.589Z,24.62
2022-09-01T12:42:44.739Z,24.65
2022-09-01T12:43:40.575Z,24.63
2022-09-01T12:44:40.566Z,24.61
2022-09-01T12:45:40.591Z,24.55
2022-09-01T12:46:40.515Z,24.58
2022-09-01T12:47:40.565Z,24.51
2022-09-01T12:48:40.480Z,24.51
2022-09-01T12:49:50.108Z,24.47
2022-09-01T12:50:40.457Z,24.47
2022-09-01T12:51:40.478Z,24.36
2022-09-01T12:52:40.501Z,24.36
2022-09-01T12:53:42.579Z,24.32
2022-09-01T12:54:40.399Z,24.26
2022-09-01T12:55:47.973Z,24.31
2022-09-01T12:56:40.356Z,24.37
2022-09-01T12:57:41.364Z,24.31
2022-09-01T12:58:40.326Z,24.38
2022-09-01T12:59:40.360Z,24.38
2022-09-01T13:00:40.335Z,24.44
2022-09-01T13:01:40.493Z,24.59
2022-09-01T13:02:40.416Z,24.62
2022-09-01T13:03:40.250Z,24.62
2022-09-01T13:04:40.233Z,24.61
2022-09-01T13:05:42.397Z,24.58
2022-09-01T13:06:40.204Z,24.58
2022-09-01T13:07:40.219Z,24.61
2022-09-01T13:08:40.177Z,24.56
2022-09-01T13:09:40.161Z,24.62
2022-09-01T13:10:40.144Z,24.44
2022-09-01T13:12:40.111Z,24.29
2022-09-01T13:13:40.097Z,24.34
2022-09-01T13:14:40.079Z,24.37
2022-09-01T13:15:40.067Z,24.29
2022-09-01T13:16:40.149Z,24.21